createdAt,value
2023-05-14T00:00:55.156Z,14.20
2023-05-14T00:03:21.867Z,14.00
2023-05-14T00:05:48.768Z,14.00
2023-05-14T00:08:15.397Z,14.00
2023-05-14T00:10:41.985Z,14.00
2023-05-14T00:13:08.737Z,14.00
2023-05-14T00:15:35.390Z,14.00
2023-05-14T00:18:02.228Z,14.00
2023-05-14T00:20:29.024Z,14.00
2023-05-14T00:22:55.640Z,13.90
2023-05-14T00:25:22.283Z,13.90
2023-05-14T00:27:48.935Z,13.90
2023-05-14T00:30:15.614Z,13.80
2023-05-14T00:32:42.319Z,13.70
2023-05-14T00:35:09.408Z,13.80
2023-05-14T00:37:37.212Z,13.70
2023-05-14T00:40:04.405Z,13.80
2023-05-14T00:42:31.080Z,13.80
2023-05-14T00:44:57.751Z,13.70
2023-05-14T00:47:24.570Z,13.70
2023-05-14T00:49:51.266Z,13.70
2023-05-14T00:52:18.605Z,13.70
2023-05-14T00:54:47.646Z,13.60
2023-05-14T00:57:14.405Z,13.60
2023-05-14T00:59:42.487Z,13.60
2023-05-14T01:02:09.271Z,13.50
2023-05-14T01:04:36.425Z,13.50
2023-05-14T01:07:16.589Z,13.60
2023-05-14T01:09:55.550Z,13.50
2023-05-14T01:12:33.233Z,13.50
2023-05-14T01:15:15.298Z,13.50
2023-05-14T01:17:48.491Z,13.50
2023-05-14T01:20:16.289Z,13.40
2023-05-14T01:22:42.990Z,13.40
2023-05-14T01:25:10.051Z,13.40
2023-05-14T01:27:57.501Z,13.50
2023-05-14T01:30:35.490Z,13.40
2023-05-14T01:33:06.513Z,13.40
2023-05-14T01:35:33.682Z,13.40
2023-05-14T01:38:02.214Z,13.30
2023-05-14T01:40:30.214Z,13.30
2023-05-14T01:42:57.404Z,13.30
2023-05-14T01:45:24.525Z,13.30
2023-05-14T01:47:51.703Z,13.30
2023-05-14T01:50:18.677Z,13.30
2023-05-14T01:52:45.360Z,13.20
2023-05-14T01:55:12.127Z,13.20
2023-05-14T01:57:38.740Z,13.20
2023-05-14T02:00:06.273Z,13.20
2023-05-14T02:02:32.943Z,13.20
2023-05-14T02:04:59.578Z,13.10
2023-05-14T02:07:26.234Z,13.10
2023-05-14T02:09:52.843Z,13.10
2023-05-14T02:12:19.492Z,13.10
2023-05-14T02:14:46.218Z,13.10
2023-05-14T02:17:15.795Z,13.10
2023-05-14T02:19:42.484Z,13.10
2023-05-14T02:22:09.178Z,13.00
2023-05-14T02:24:35.834Z,13.00
2023-05-14T02:27:02.468Z,13.00
2023-05-14T02:29:29.134Z,13.00
2023-05-14T02:31:56.243Z,13.00
2023-05-14T02:34:23.467Z,13.00
2023-05-14T02:36:50.251Z,12.90
2023-05-14T02:39:16.880Z,12.90
2023-05-14T02:41:43.547Z,12.90
2023-05-14T02:44:10.417Z,12.90
2023-05-14T02:46:37.226Z,12.90
2023-05-14T02:49:03.917Z,12.80
2023-05-14T02:51:30.592Z,12.70
2023-05-14T02:53:57.218Z,12.80
2023-05-14T02:56:23.860Z,12.80
2023-05-14T02:58:50.547Z,12.80
2023-05-14T03:01:18.781Z,12.80
2023-05-14T03:03:45.914Z,12.70
2023-05-14T03:06:12.870Z,12.70
2023-05-14T03:08:39.447Z,12.60
2023-05-14T03:11:06.845Z,12.60
2023-05-14T03:13:33.512Z,12.60
2023-05-14T03:16:00.166Z,12.60
2023-05-14T03:18:28.378Z,12.60
2023-05-14T03:20:55.041Z,12.60
2023-05-14T03:23:21.772Z,12.60
2023-05-14T03:25:48.386Z,12.50
2023-05-14T03:28:15.197Z,12.50
2023-05-14T03:30:41.901Z,12.60
2023-05-14T03:33:08.644Z,12.50
2023-05-14T03:35:35.263Z,12.50
2023-05-14T03:38:01.870Z,12.50
2023-05-14T03:40:28.561Z,12.50
2023-05-14T03:42:55.959Z,12.50
2023-05-14T03:45:22.708Z,12.40
2023-05-14T03:47:49.440Z,12.40
2023-05-14T03:50:16.267Z,12.40
2023-05-14T03:52:43.513Z,12.40
2023-05-14T03:55:10.488Z,12.40
2023-05-14T03:57:37.142Z,12.20
2023-05-14T04:00:09.064Z,12.30
2023-05-14T04:02:36.175Z,12.30
2023-05-14T04:05:02.974Z,12.30
2023-05-14T04:07:29.796Z,12.40
2023-05-14T04:09:56.427Z,12.40
2023-05-14T04:12:23.583Z,12.30
2023-05-14T04:14:50.278Z,12.30
2023-05-14T04:17:17.043Z,12.40
2023-05-14T04:19:43.700Z,12.30
2023-05-14T04:22:10.439Z,12.30
2023-05-14T04:24:37.152Z,12.40
2023-05-14T04:27:04.496Z,12.30
2023-05-14T04:29:31.523Z,12.30
2023-05-14T04:31:58.307Z,12.30
2023-05-14T04:34:25.198Z,12.30
2023-05-14T04:36:52.219Z,12.30
2023-05-14T04:39:19.142Z,12.30
2023-05-14T04:41:45.886Z,12.30
2023-05-14T04:44:13.053Z,12.30
2023-05-14T04:46:39.684Z,12.30
2023-05-14T04:49:06.290Z,12.30
2023-05-14T04:51:32.922Z,12.30
2023-05-14T04:53:59.659Z,12.30
2023-05-14T04:56:26.349Z,12.30
2023-05-14T04:58:52.963Z,12.30
2023-05-14T05:01:19.593Z,12.40
2023-05-14T05:03:46.419Z,12.40
2023-05-14T05:06:13.215Z,12.40
2023-05-14T05:08:40.954Z,12.40
2023-05-14T05:11:07.710Z,12.50
2023-05-14T05:13:34.444Z,12.50
2023-05-14T05:16:01.229Z,12.50
2023-05-14T05:18:28.002Z,12.60
2023-05-14T05:20:54.857Z,12.60
2023-05-14T05:23:21.574Z,12.60
2023-05-14T05:25:49.218Z,12.60
2023-05-14T05:28:16.146Z,12.60
2023-05-14T05:30:45.010Z,12.60
2023-05-14T05:33:12.474Z,12.60
2023-05-14T05:35:39.144Z,12.70
2023-05-14T05:38:05.773Z,12.70
2023-05-14T05:40:32.435Z,12.70
2023-05-14T05:42:59.108Z,12.80
2023-05-14T05:45:25.938Z,12.80
2023-05-14T05:47:52.777Z,12.90
2023-05-14T05:50:20.066Z,13.00
2023-05-14T05:52:47.162Z,13.00
2023-05-14T05:55:13.808Z,13.10
2023-05-14T05:57:40.507Z,13.10
2023-05-14T06:00:13.170Z,13.20
2023-05-14T06:02:44.141Z,13.20
2023-05-14T06:05:11.453Z,13.20
2023-05-14T06:07:38.352Z,13.30
2023-05-14T06:10:06.306Z,13.30
2023-05-14T06:12:32.900Z,13.40
2023-05-14T06:14:59.629Z,13.40
2023-05-14T06:17:26.817Z,13.50
2023-05-14T06:19:53.495Z,13.50
2023-05-14T06:22:20.349Z,13.60
2023-05-14T06:24:47.979Z,13.70
2023-05-14T06:27:14.851Z,13.70
2023-05-14T06:29:41.601Z,13.80
2023-05-14T06:32:09.035Z,14.10
2023-05-14T06:34:35.746Z,14.20
2023-05-14T06:37:04.182Z,14.40
2023-05-14T06:39:31.003Z,14.50
2023-05-14T06:41:57.675Z,14.50
2023-05-14T06:44:24.467Z,14.60
2023-05-14T06:46:51.116Z,14.60
2023-05-14T06:49:18.241Z,14.60
2023-05-14T06:51:45.593Z,14.60
2023-05-14T06:54:12.405Z,14.60
2023-05-14T06:56:39.061Z,14.60
2023-05-14T06:59:05.929Z,14.70
2023-05-14T07:01:32.662Z,14.70
2023-05-14T07:03:59.478Z,14.70
2023-05-14T07:06:26.165Z,14.80
2023-05-14T07:08:53.321Z,14.90
2023-05-14T07:11:20.059Z,14.90
2023-05-14T07:13:46.724Z,15.00
2023-05-14T07:16:13.421Z,15.10
2023-05-14T07:18:40.407Z,15.20
2023-05-14T07:21:07.167Z,15.40
2023-05-14T07:23:36.214Z,15.60
2023-05-14T07:26:03.851Z,15.70
2023-05-14T07:28:30.582Z,15.70
2023-05-14T07:30:57.262Z,15.90
2023-05-14T07:33:24.656Z,16.00
2023-05-14T07:35:52.151Z,16.10
2023-05-14T07:38:20.329Z,16.20
2023-05-14T07:40:47.140Z,16.30
2023-05-14T07:43:14.549Z,16.20
2023-05-14T07:45:41.405Z,16.40
2023-05-14T07:48:08.633Z,16.40
2023-05-14T07:50:35.555Z,16.60
2023-05-14T07:53:02.168Z,16.70
2023-05-14T07:55:28.988Z,16.80
2023-05-14T07:57:56.083Z,16.80
2023-05-14T08:00:22.928Z,17.00
2023-05-14T08:02:50.302Z,17.10
2023-05-14T08:05:17.751Z,17.20
2023-05-14T08:07:44.660Z,17.30
2023-05-14T08:10:11.678Z,17.40
2023-05-14T08:12:38.987Z,17.30
2023-05-14T08:15:07.727Z,17.30
2023-05-14T08:17:34.469Z,17.30
2023-05-14T08:20:01.705Z,17.40
2023-05-14T08:22:28.383Z,17.50
2023-05-14T08:24:55.023Z,17.70
2023-05-14T08:27:22.888Z,17.90
2023-05-14T08:29:49.578Z,18.00
2023-05-14T08:32:23.333Z,18.20
2023-05-14T08:34:51.457Z,18.50
2023-05-14T08:37:18.212Z,18.90
2023-05-14T08:39:44.936Z,19.10
2023-05-14T08:42:13.388Z,19.20
2023-05-14T08:44:49.979Z,19.40
2023-05-14T08:47:18.275Z,19.80
2023-05-14T08:49:49.676Z,20.30
2023-05-14T08:52:19.439Z,20.50
2023-05-14T08:54:48.149Z,20.60
2023-05-14T08:57:17.062Z,20.40
2023-05-14T08:59:43.797Z,20.20
2023-05-14T09:02:14.659Z,20.30
2023-05-14T09:04:42.362Z,20.70
2023-05-14T09:07:09.215Z,21.20
2023-05-14T09:09:36.154Z,21.30
2023-05-14T09:12:03.183Z,21.70
2023-05-14T09:14:29.877Z,22.20
2023-05-14T09:16:57.131Z,22.80
2023-05-14T09:19:24.386Z,23.10
2023-05-14T09:21:51.261Z,23.20
2023-05-14T09:24:22.805Z,23.00
2023-05-14T09:26:58.602Z,23.10
2023-05-14T09:29:26.232Z,23.20
2023-05-14T09:31:54.086Z,22.70
2023-05-14T09:34:31.502Z,22.60
2023-05-14T09:37:01.288Z,22.30
2023-05-14T09:39:28.671Z,22.50
2023-05-14T09:41:56.277Z,22.50
2023-05-14T09:44:23.592Z,22.70
2023-05-14T09:46:51.281Z,22.80
2023-05-14T09:49:18.452Z,22.90
2023-05-14T09:51:45.103Z,22.70
2023-05-14T09:54:12.294Z,22.70
2023-05-14T09:56:39.684Z,22.80
2023-05-14T09:59:06.499Z,23.10
2023-05-14T10:01:33.721Z,23.30
2023-05-14T10:04:02.050Z,23.60
2023-05-14T10:06:32.955Z,23.80
2023-05-14T10:09:03.203Z,23.70
2023-05-14T10:11:33.552Z,23.90
2023-05-14T10:14:08.638Z,23.90
2023-05-14T10:16:37.951Z,23.70
2023-05-14T10:19:09.470Z,23.40
2023-05-14T10:21:37.859Z,23.10
2023-05-14T10:24:06.180Z,23.00
2023-05-14T10:26:37.667Z,22.80
2023-05-14T10:29:04.832Z,22.50
2023-05-14T10:31:54.573Z,22.40
2023-05-14T10:34:37.162Z,22.60
2023-05-14T10:37:10.233Z,22.60
2023-05-14T10:39:50.511Z,22.60
2023-05-14T10:42:35.857Z,22.70
2023-05-14T10:45:07.291Z,22.80
2023-05-14T10:47:36.339Z,22.90
2023-05-14T10:50:06.071Z,23.10
2023-05-14T10:52:33.927Z,23.30
2023-05-14T10:55:03.937Z,23.50
2023-05-14T10:57:32.943Z,23.60
2023-05-14T11:00:01.170Z,23.60
2023-05-14T11:02:37.271Z,23.40
2023-05-14T11:05:09.317Z,23.30
2023-05-14T11:07:38.574Z,23.00
2023-05-14T11:10:09.412Z,22.90
2023-05-14T11:12:37.640Z,23.00
2023-05-14T11:15:07.774Z,23.00
2023-05-14T11:17:35.863Z,23.10
2023-05-14T11:20:03.230Z,23.30
2023-05-14T11:22:30.049Z,23.40
2023-05-14T11:24:57.469Z,23.40
2023-05-14T11:27:24.495Z,23.50
2023-05-14T11:29:51.296Z,23.40
2023-05-14T11:32:18.968Z,23.50
2023-05-14T11:34:46.902Z,23.40
2023-05-14T11:37:16.327Z,23.50
2023-05-14T11:39:48.753Z,23.40
2023-05-14T11:42:18.453Z,23.60
2023-05-14T11:44:49.344Z,23.50
2023-05-14T11:47:18.285Z,23.30
2023-05-14T11:49:45.463Z,23.50
2023-05-14T11:52:16.387Z,23.50
2023-05-14T11:54:44.254Z,23.50
2023-05-14T11:57:19.708Z,23.40
2023-05-14T11:59:47.237Z,23.50
2023-05-14T12:02:16.909Z,23.40
2023-05-14T12:04:44.698Z,23.30
2023-05-14T12:07:14.599Z,23.40
2023-05-14T12:09:49.671Z,23.60
2023-05-14T12:12:21.644Z,23.90
2023-05-14T12:14:49.820Z,24.00
2023-05-14T12:17:18.697Z,23.90
2023-05-14T12:19:47.916Z,23.80
2023-05-14T12:22:17.349Z,23.70
2023-05-14T12:24:52.945Z,24.00
2023-05-14T12:27:26.161Z,24.20
2023-05-14T12:30:19.922Z,24.10
2023-05-14T12:32:51.339Z,24.30
2023-05-14T12:35:18.527Z,24.40
2023-05-14T12:37:45.348Z,24.30
2023-05-14T12:40:12.305Z,24.20
2023-05-14T12:42:39.021Z,24.20
2023-05-14T12:45:08.398Z,24.00
2023-05-14T12:47:36.317Z,24.00
2023-05-14T12:50:03.698Z,23.80
2023-05-14T12:52:37.786Z,23.70
2023-05-14T12:55:07.019Z,23.70
2023-05-14T12:57:35.489Z,23.60
2023-05-14T13:00:06.370Z,23.50
2023-05-14T13:02:33.183Z,23.50
2023-05-14T13:05:10.650Z,23.60
2023-05-14T13:07:37.514Z,23.60
2023-05-14T13:10:05.727Z,23.50
2023-05-14T13:12:32.716Z,23.50
2023-05-14T13:14:59.937Z,23.50
2023-05-14T13:17:26.665Z,23.50
2023-05-14T13:19:53.497Z,23.50
2023-05-14T13:22:20.160Z,23.40
2023-05-14T13:24:46.942Z,23.50
2023-05-14T13:27:13.639Z,23.50
2023-05-14T13:29:40.293Z,23.50
2023-05-14T13:32:07.303Z,23.60
2023-05-14T13:34:34.109Z,23.60
2023-05-14T13:37:01.308Z,23.60
2023-05-14T13:39:28.012Z,23.70
2023-05-14T13:41:56.911Z,23.70
2023-05-14T13:44:24.360Z,23.60
2023-05-14T13:46:51.393Z,23.60
2023-05-14T13:49:18.368Z,23.70
2023-05-14T13:51:45.379Z,23.60
2023-05-14T13:54:12.139Z,23.60
2023-05-14T13:56:38.831Z,23.50
2023-05-14T13:59:05.930Z,23.40
2023-05-14T14:01:32.870Z,23.30
2023-05-14T14:03:59.684Z,23.20
2023-05-14T14:06:29.921Z,23.10
2023-05-14T14:08:56.597Z,23.10
2023-05-14T14:11:23.431Z,22.90
2023-05-14T14:13:50.082Z,22.80
2023-05-14T14:16:16.915Z,22.90
2023-05-14T14:18:43.760Z,22.90
2023-05-14T14:21:10.880Z,23.10
2023-05-14T14:23:37.696Z,23.10
2023-05-14T14:26:04.456Z,23.00
2023-05-14T14:28:31.404Z,23.00
2023-05-14T14:30:58.155Z,23.00
2023-05-14T14:33:24.763Z,23.10
2023-05-14T14:35:51.753Z,23.10
2023-05-14T14:38:18.628Z,23.20
2023-05-14T14:40:46.299Z,23.20
2023-05-14T14:43:13.024Z,23.10
2023-05-14T14:45:42.836Z,23.20
2023-05-14T14:48:25.938Z,23.20
2023-05-14T14:50:53.207Z,23.20
2023-05-14T14:53:21.500Z,23.30
2023-05-14T14:55:57.552Z,23.30
2023-05-14T14:58:24.869Z,23.30
2023-05-14T15:00:53.686Z,23.30
2023-05-14T15:03:21.332Z,23.30
2023-05-14T15:05:48.447Z,23.30
2023-05-14T15:08:15.612Z,23.30
2023-05-14T15:10:42.444Z,23.20
2023-05-14T15:13:09.348Z,23.10
2023-05-14T15:15:36.383Z,23.20
2023-05-14T15:18:03.580Z,23.20
2023-05-14T15:20:30.580Z,23.20
2023-05-14T15:22:57.268Z,23.10
2023-05-14T15:25:24.801Z,23.00
2023-05-14T15:27:51.776Z,23.00
2023-05-14T15:30:18.457Z,23.00
2023-05-14T15:32:46.348Z,23.00
2023-05-14T15:35:13.095Z,22.90
2023-05-14T15:37:41.833Z,22.90
2023-05-14T15:40:09.123Z,22.80
2023-05-14T15:42:43.526Z,22.80
2023-05-14T15:45:13.739Z,22.70
2023-05-14T15:47:41.430Z,22.60
2023-05-14T15:50:08.701Z,22.60
2023-05-14T15:52:36.387Z,22.60
2023-05-14T15:55:04.982Z,22.50
2023-05-14T15:57:31.761Z,22.50
2023-05-14T15:59:58.412Z,22.50
2023-05-14T16:02:25.399Z,22.40
2023-05-14T16:04:52.056Z,22.50
2023-05-14T16:07:18.809Z,22.50
2023-05-14T16:09:45.450Z,22.50
2023-05-14T16:12:12.476Z,22.60
2023-05-14T16:14:41.789Z,22.60
2023-05-14T16:17:08.956Z,22.60
2023-05-14T16:19:35.695Z,22.60
2023-05-14T16:22:02.426Z,22.60
2023-05-14T16:24:29.013Z,22.50
2023-05-14T16:26:56.085Z,22.50
2023-05-14T16:29:22.838Z,22.40
2023-05-14T16:31:49.671Z,22.40
2023-05-14T16:34:16.407Z,22.30
2023-05-14T16:36:43.301Z,22.20
2023-05-14T16:39:11.411Z,22.20
2023-05-14T16:41:38.103Z,22.20
2023-05-14T16:44:04.856Z,22.10
2023-05-14T16:46:32.021Z,22.00
2023-05-14T16:48:58.905Z,22.00
2023-05-14T16:51:25.969Z,22.00
2023-05-14T16:53:54.703Z,21.90
2023-05-14T16:56:22.435Z,22.00
2023-05-14T16:58:49.302Z,21.90
2023-05-14T17:01:16.055Z,21.90
2023-05-14T17:03:43.544Z,21.90
2023-05-14T17:06:10.531Z,21.90
2023-05-14T17:08:37.193Z,21.80
2023-05-14T17:11:05.821Z,21.80
2023-05-14T17:13:33.080Z,21.80
2023-05-14T17:16:00.563Z,21.80
2023-05-14T17:18:27.709Z,21.80
2023-05-14T17:20:54.545Z,21.70
2023-05-14T17:23:21.241Z,21.70
2023-05-14T17:25:48.000Z,21.60
2023-05-14T17:28:14.716Z,21.60
2023-05-14T17:30:41.575Z,21.60
2023-05-14T17:33:08.462Z,21.60
2023-05-14T17:35:36.322Z,21.50
2023-05-14T17:38:03.509Z,21.40
2023-05-14T17:40:30.379Z,21.50
2023-05-14T17:42:57.030Z,21.40
2023-05-14T17:45:24.197Z,21.40
2023-05-14T17:47:51.443Z,21.40
2023-05-14T17:50:18.774Z,21.40
2023-05-14T17:52:46.106Z,21.30
2023-05-14T17:55:12.909Z,21.30
2023-05-14T17:57:39.913Z,21.30
2023-05-14T18:00:07.492Z,21.20
2023-05-14T18:02:34.212Z,21.10
2023-05-14T18:05:02.617Z,21.10
2023-05-14T18:07:30.074Z,21.00
2023-05-14T18:09:56.908Z,21.00
2023-05-14T18:12:25.542Z,21.00
2023-05-14T18:14:52.333Z,20.90
2023-05-14T18:17:19.171Z,20.80
2023-05-14T18:19:45.976Z,20.80
2023-05-14T18:22:12.878Z,20.70
2023-05-14T18:24:39.498Z,20.70
2023-05-14T18:27:06.390Z,20.60
2023-05-14T18:29:33.031Z,20.60
2023-05-14T18:31:59.671Z,20.50
2023-05-14T18:34:26.311Z,20.40
2023-05-14T18:36:53.025Z,20.40
2023-05-14T18:39:19.720Z,20.40
2023-05-14T18:41:46.416Z,20.30
2023-05-14T18:44:13.304Z,20.30
2023-05-14T18:46:40.179Z,20.30
2023-05-14T18:49:06.953Z,20.20
2023-05-14T18:51:33.603Z,20.10
2023-05-14T18:54:00.252Z,20.00
2023-05-14T18:56:27.020Z,20.00
2023-05-14T18:58:54.705Z,19.80
2023-05-14T19:01:24.463Z,19.60
2023-05-14T19:03:53.037Z,19.50
2023-05-14T19:06:19.887Z,19.30
2023-05-14T19:08:46.753Z,19.30
2023-05-14T19:11:13.443Z,19.10
2023-05-14T19:13:40.188Z,18.90
2023-05-14T19:16:07.047Z,18.70
2023-05-14T19:18:34.310Z,18.60
2023-05-14T19:21:00.960Z,18.40
2023-05-14T19:23:27.612Z,18.40
2023-05-14T19:25:54.313Z,18.30
2023-05-14T19:28:21.229Z,18.30
2023-05-14T19:30:47.950Z,18.10
2023-05-14T19:33:14.697Z,18.10
2023-05-14T19:35:41.396Z,17.90
2023-05-14T19:38:10.171Z,17.90
2023-05-14T19:40:36.903Z,17.80
2023-05-14T19:43:03.512Z,17.70
2023-05-14T19:45:30.215Z,17.60
2023-05-14T19:47:57.003Z,17.50
2023-05-14T19:50:23.655Z,17.30
2023-05-14T19:52:50.369Z,17.20
2023-05-14T19:55:17.027Z,17.10
2023-05-14T19:57:43.612Z,17.10
2023-05-14T20:00:11.054Z,17.00
2023-05-14T20:02:37.873Z,17.00
2023-05-14T20:05:06.691Z,16.90
2023-05-14T20:07:33.472Z,16.90
2023-05-14T20:10:00.141Z,16.90
2023-05-14T20:12:27.745Z,16.90
2023-05-14T20:14:54.697Z,16.70
2023-05-14T20:17:21.476Z,16.70
2023-05-14T20:19:48.121Z,16.60
2023-05-14T20:22:15.166Z,16.60
2023-05-14T20:24:41.886Z,16.60
2023-05-14T20:27:08.841Z,16.30
2023-05-14T20:29:35.575Z,16.50
2023-05-14T20:32:02.232Z,16.40
2023-05-14T20:34:28.940Z,16.40
2023-05-14T20:36:56.036Z,16.30
2023-05-14T20:39:22.830Z,16.30
2023-05-14T20:41:49.496Z,16.30
2023-05-14T20:44:17.279Z,16.20
2023-05-14T20:46:45.143Z,16.20
2023-05-14T20:49:11.939Z,16.20
2023-05-14T20:51:38.609Z,16.00
2023-05-14T20:54:05.449Z,16.10
2023-05-14T20:56:32.624Z,16.00
2023-05-14T20:58:59.296Z,16.00
2023-05-14T21:01:26.009Z,15.90
2023-05-14T21:03:52.839Z,15.90
2023-05-14T21:06:19.765Z,15.90
2023-05-14T21:08:46.443Z,15.80
2023-05-14T21:11:14.175Z,15.70
2023-05-14T21:13:42.460Z,15.60
2023-05-14T21:16:09.401Z,15.60
2023-05-14T21:18:36.618Z,15.50
2023-05-14T21:21:03.547Z,15.40
2023-05-14T21:23:30.312Z,15.40
2023-05-14T21:25:57.841Z,15.40
2023-05-14T21:28:24.482Z,15.40
2023-05-14T21:30:52.873Z,15.40
2023-05-14T21:33:19.522Z,15.20
2023-05-14T21:35:46.162Z,15.20
2023-05-14T21:38:12.847Z,15.20
2023-05-14T21:40:39.516Z,15.10
2023-05-14T21:43:06.387Z,15.20
2023-05-14T21:45:33.113Z,15.10
2023-05-14T21:47:59.880Z,15.10
2023-05-14T21:50:26.911Z,15.10
2023-05-14T21:52:53.600Z,14.90
2023-05-14T21:55:20.337Z,14.90
2023-05-14T21:57:47.047Z,14.80
2023-05-14T22:00:18.451Z,14.80
2023-05-14T22:02:45.145Z,14.70
2023-05-14T22:05:11.807Z,14.70
2023-05-14T22:07:38.609Z,14.60
2023-05-14T22:10:05.684Z,14.60
2023-05-14T22:12:32.369Z,14.50
2023-05-14T22:14:59.023Z,14.50
2023-05-14T22:17:27.982Z,14.40
2023-05-14T22:19:54.824Z,14.40
2023-05-14T22:22:21.498Z,14.30
2023-05-14T22:24:48.255Z,14.30
2023-05-14T22:27:14.928Z,14.20
2023-05-14T22:29:41.541Z,14.20
2023-05-14T22:32:09.596Z,14.20
2023-05-14T22:34:39.367Z,14.10
2023-05-14T22:37:06.197Z,14.10
2023-05-14T22:39:32.824Z,14.00
2023-05-14T22:41:59.606Z,14.00
2023-05-14T22:44:27.235Z,14.00
2023-05-14T22:46:55.862Z,14.00
2023-05-14T22:49:22.551Z,13.90
2023-05-14T22:51:52.379Z,14.00
2023-05-14T22:54:19.072Z,14.10
2023-05-14T22:56:45.801Z,14.10
2023-05-14T22:59:12.717Z,14.10
2023-05-14T23:01:39.566Z,14.00
2023-05-14T23:04:06.466Z,14.00
2023-05-14T23:06:33.235Z,13.90
2023-05-14T23:08:59.935Z,13.90
2023-05-14T23:11:26.911Z,13.90
2023-05-14T23:13:53.562Z,13.90
2023-05-14T23:16:20.626Z,13.80
2023-05-14T23:18:47.415Z,13.70
2023-05-14T23:21:14.984Z,13.70
2023-05-14T23:23:41.648Z,13.60
2023-05-14T23:26:08.286Z,13.70
2023-05-14T23:28:34.917Z,13.70
2023-05-14T23:31:01.563Z,13.70
2023-05-14T23:33:28.239Z,13.60
2023-05-14T23:35:54.908Z,13.60
2023-05-14T23:38:21.602Z,13.60
2023-05-14T23:40:48.251Z,13.70
2023-05-14T23:43:15.083Z,13.60
2023-05-14T23:45:42.074Z,13.50
2023-05-14T23:48:08.911Z,13.50
2023-05-14T23:50:35.553Z,13.50
2023-05-14T23:53:02.231Z,13.40
2023-05-14T23:55:28.957Z,13.50
2023-05-14T23:57:55.669Z,13.40
